Time;durP1;ratioP1;P1;durP2;ratioP2;P2;SDS_P1;SDS_P2;PMS_P1;PMS_P2;Temp;Humidity;BMP_temperature;BMP_pressure;BME280_temperature;BME280_humidity;BME280_pressure;Samples;Min_cycle;Max_cycle;Signal;HPM_P1;HPM_P2
2022/08/03 00:02:17;;;;;;;0.82;0.82;;;26.30;56.90;;;;;;5039297;28;20124;-64
2022/08/03 00:04:44;;;;;;;1.08;1.05;;;26.30;56.90;;;;;;5042697;28;20044;-63
2022/08/03 00:07:11;;;;;;;0.95;0.95;;;26.30;56.90;;;;;;5044059;28;20049;-63
2022/08/03 00:09:38;;;;;;;1.00;1.00;;;26.30;56.90;;;;;;5043472;28;20345;-60
2022/08/03 00:12:06;;;;;;;1.05;1.05;;;26.30;56.80;;;;;;5043588;28;20084;-61
2022/08/03 00:14:33;;;;;;;1.30;0.80;;;26.30;56.90;;;;;;5042875;28;20123;-61
2022/08/03 00:17:01;;;;;;;1.00;0.88;;;26.30;56.80;;;;;;5043463;28;20056;-61
2022/08/03 00:19:28;;;;;;;1.00;1.00;;;26.30;56.80;;;;;;5043293;28;20052;-63
2022/08/03 00:21:55;;;;;;;0.90;0.90;;;26.30;56.80;;;;;;5043088;28;20060;-63
2022/08/03 00:24:22;;;;;;;1.10;1.10;;;26.30;56.80;;;;;;5043477;28;20361;-64
2022/08/03 00:26:50;;;;;;;0.82;0.82;;;26.30;56.80;;;;;;5041475;28;20106;-63
2022/08/03 00:29:17;;;;;;;1.08;1.08;;;26.30;56.80;;;;;;5043745;28;20065;-61
2022/08/03 00:31:44;;;;;;;1.00;1.00;;;26.30;56.80;;;;;;5041390;28;20044;-61
2022/08/03 00:34:25;;;;;;;0.90;0.90;;;26.30;56.80;;;;;;5040243;28;20058;-63
2022/08/03 00:37:13;;;;;;;0.85;0.85;;;26.30;56.80;;;;;;5042301;28;20063;-63
2022/08/03 00:39:44;;;;;;;0.98;0.98;;;26.20;56.70;;;;;;5041927;28;20532;-63
2022/08/03 00:42:12;;;;;;;0.73;0.70;;;26.30;56.80;;;;;;5043191;28;20048;-64
2022/08/03 00:44:42;;;;;;;1.30;1.20;;;26.20;56.70;;;;;;5043046;28;20545;-63
2022/08/03 00:47:10;;;;;;;1.00;1.00;;;26.30;56.80;;;;;;5042954;28;20084;-64
2022/08/03 00:49:38;;;;;;;0.77;0.77;;;26.20;56.70;;;;;;5043613;28;20456;-64
2022/08/03 00:52:09;;;;;;;0.98;0.98;;;26.20;56.70;;;;;;5043046;28;20485;-63
2022/08/03 00:54:39;;;;;;;0.98;0.95;;;26.30;56.70;;;;;;5026016;28;20079;-63
2022/08/03 00:57:07;;;;;;;0.70;0.70;;;26.20;56.70;;;;;;5043262;28;20076;-63
2022/08/03 00:59:37;;;;;;;0.90;0.90;;;26.20;56.70;;;;;;5045606;28;20106;-66
2022/08/03 01:02:04;;;;;;;1.17;1.07;;;26.20;56.70;;;;;;5047400;28;20122;-63
2022/08/03 01:04:31;;;;;;;1.08;1.08;;;26.20;56.70;;;;;;5042420;28;20290;-63
2022/08/03 01:07:24;;;;;;;1.25;1.25;;;26.20;56.70;;;;;;5045628;28;20098;-63
2022/08/03 01:10:11;;;;;;;0.75;0.75;;;26.30;56.80;;;;;;5045477;28;20103;-63
2022/08/03 01:13:16;;;;;;;0.70;0.70;;;26.20;56.60;;;;;;5046812;28;20498;-63
2022/08/03 01:16:32;;;;;;;1.05;1.05;;;26.20;56.60;;;;;;5032612;28;20158;-64
2022/08/03 01:19:38;;;;;;;0.73;0.73;;;26.20;56.60;;;;;;5045500;28;20049;-63
2022/08/03 01:22:46;;;;;;;0.90;0.90;;;26.20;56.60;;;;;;5043737;28;20107;-63
2022/08/03 01:25:44;;;;;;;1.23;1.13;;;26.20;56.60;;;;;;5044111;28;20056;-63
2022/08/03 01:28:46;;;;;;;1.00;0.85;;;26.20;56.60;;;;;;5044144;28;20161;-63
2022/08/03 01:31:17;;;;;;;1.00;0.90;;;26.20;56.60;;;;;;5044191;28;20053;-63
2022/08/03 01:33:51;;;;;;;1.13;1.05;;;26.20;56.60;;;;;;5044631;28;20540;-64
2022/08/03 01:36:25;;;;;;;0.90;0.90;;;26.20;56.60;;;;;;5039992;28;20048;-63
2022/08/03 01:39:10;;;;;;;0.80;0.80;;;26.20;56.60;;;;;;5045340;28;20056;-63
2022/08/03 01:41:58;;;;;;;0.77;0.77;;;26.20;56.60;;;;;;5044622;28;20049;-63
2022/08/03 01:44:29;;;;;;;1.05;0.93;;;26.20;56.60;;;;;;5045035;28;20521;-63
2022/08/03 01:47:00;;;;;;;1.08;1.08;;;26.20;56.60;;;;;;5044494;28;20257;-61
2022/08/03 01:49:28;;;;;;;;;;;26.20;56.60;;;;;;5045252;28;20049;-63
2022/08/03 01:51:57;;;;;;;0.80;0.80;;;26.20;56.60;;;;;;5043160;28;20301;-63
2022/08/03 01:54:39;;;;;;;0.85;0.85;;;26.20;56.60;;;;;;5044557;28;20056;-63
2022/08/03 01:57:08;;;;;;;1.55;0.68;;;26.20;56.60;;;;;;5043313;28;20071;-63
2022/08/03 01:59:37;;;;;;;1.20;1.20;;;26.20;56.60;;;;;;5042916;28;20265;-63
2022/08/03 02:02:07;;;;;;;1.17;0.77;;;26.10;56.50;;;;;;5044310;28;20143;-63
2022/08/03 02:04:56;;;;;;;1.13;1.02;;;26.10;56.50;;;;;;5044472;28;20131;-64
2022/08/03 02:07:26;;;;;;;1.02;1.02;;;26.20;56.60;;;;;;5042710;28;20056;-64
2022/08/03 02:09:54;;;;;;;1.10;1.10;;;26.10;56.50;;;;;;5040063;28;20382;-63
2022/08/03 02:12:24;;;;;;;0.95;0.95;;;26.10;56.50;;;;;;5044368;28;20053;-63
2022/08/03 02:14:52;;;;;;;;;;;26.10;56.50;;;;;;5044744;28;20313;-64
2022/08/03 02:17:20;;;;;;;0.70;0.70;;;26.10;56.50;;;;;;5044358;28;19977;-63
2022/08/03 02:20:08;;;;;;;0.70;0.70;;;26.10;56.50;;;;;;5044349;28;20249;-63
2022/08/03 02:22:41;;;;;;;0.90;0.90;;;26.10;56.50;;;;;;5043972;28;20049;-63
2022/08/03 02:25:11;;;;;;;0.75;0.75;;;26.10;56.50;;;;;;5044204;28;20057;-63
2022/08/03 02:27:47;;;;;;;0.90;0.90;;;26.10;56.50;;;;;;5044034;28;20131;-63
2022/08/03 02:30:14;;;;;;;0.85;0.85;;;26.10;56.50;;;;;;5043827;28;20060;-63
2022/08/03 02:32:47;;;;;;;0.60;0.60;;;26.10;56.50;;;;;;5043602;28;20094;-63
2022/08/03 02:35:18;;;;;;;1.05;1.05;;;26.10;56.50;;;;;;5043355;28;20123;-63
2022/08/03 02:37:50;;;;;;;0.85;0.85;;;26.10;56.50;;;;;;5042201;28;20041;-63
2022/08/03 02:40:19;;;;;;;0.80;0.80;;;26.00;56.50;;;;;;5039417;28;20065;-63
2022/08/03 02:42:50;;;;;;;0.87;0.83;;;26.10;56.50;;;;;;5043510;28;20136;-63
2022/08/03 02:45:19;;;;;;;1.13;0.77;;;26.10;56.60;;;;;;5043103;28;20294;-63
2022/08/03 02:47:47;;;;;;;0.63;0.63;;;26.00;57.00;;;;;;5043190;28;20052;-63
2022/08/03 02:50:22;;;;;;;0.73;0.73;;;26.00;56.50;;;;;;5043535;28;20060;-63
2022/08/03 02:52:50;;;;;;;0.82;0.82;;;26.00;56.50;;;;;;5042302;28;20041;-63
2022/08/03 02:55:21;;;;;;;2.88;1.08;;;26.10;56.60;;;;;;5042029;28;20056;-63
2022/08/03 02:57:50;;;;;;;1.73;1.10;;;26.00;56.60;;;;;;5042280;28;20454;-63
2022/08/03 03:00:17;;;;;;;2.05;0.95;;;26.00;56.50;;;;;;5042808;28;20045;-63
2022/08/03 03:03:00;;;;;;;2.55;0.88;;;26.10;56.60;;;;;;5042907;28;20056;-63
2022/08/03 03:05:29;;;;;;;0.70;0.70;;;26.10;56.60;;;;;;5042127;28;20053;-63
2022/08/03 03:08:21;;;;;;;1.00;0.88;;;26.00;56.60;;;;;;5042777;28;20136;-63
2022/08/03 03:11:00;;;;;;;0.80;0.80;;;26.00;56.70;;;;;;5044007;28;20084;-63
2022/08/03 03:13:29;;;;;;;1.38;1.05;;;26.00;56.60;;;;;;5039164;28;20049;-63
2022/08/03 03:16:00;;;;;;;3.08;1.42;;;26.00;56.70;;;;;;5043491;28;20157;-63
2022/08/03 03:18:29;;;;;;;1.92;0.70;;;26.00;56.70;;;;;;5043140;28;20049;-63
2022/08/03 03:20:59;;;;;;;3.00;0.55;;;26.00;56.70;;;;;;5042813;28;20427;-63
2022/08/03 03:23:28;;;;;;;1.08;1.00;;;26.00;56.80;;;;;;5041613;28;20045;-63
2022/08/03 03:25:57;;;;;;;1.00;0.77;;;26.00;56.90;;;;;;5042889;28;20056;-63
2022/08/03 03:28:25;;;;;;;5.25;1.20;;;26.00;56.90;;;;;;5042644;28;20517;-63
2022/08/03 03:30:52;;;;;;;1.85;0.80;;;26.00;56.90;;;;;;5042632;28;20110;-63
2022/08/03 03:33:21;;;;;;;1.38;0.95;;;26.00;56.90;;;;;;5026940;28;20064;-63
2022/08/03 03:35:48;;;;;;;3.60;0.70;;;26.00;56.90;;;;;;5031311;28;20071;-63
2022/08/03 03:38:16;;;;;;;0.88;0.88;;;26.00;56.90;;;;;;5036736;28;20056;-63
2022/08/03 03:40:43;;;;;;;2.60;1.00;;;26.00;56.90;;;;;;5042599;28;20049;-62
2022/08/03 03:43:12;;;;;;;2.28;1.10;;;26.00;56.90;;;;;;5039834;28;20102;-64
2022/08/03 03:45:42;;;;;;;1.52;1.00;;;26.00;56.90;;;;;;5041892;28;20098;-63
2022/08/03 03:48:10;;;;;;;3.22;1.20;;;26.00;56.90;;;;;;5042796;28;20484;-63
2022/08/03 03:50:40;;;;;;;3.00;0.73;;;26.00;56.90;;;;;;5042809;28;20057;-63
2022/08/03 03:53:09;;;;;;;0.90;0.90;;;26.00;56.90;;;;;;5042364;28;20045;-63
2022/08/03 03:55:37;;;;;;;1.48;1.00;;;26.00;56.90;;;;;;5042209;28;20082;-62
2022/08/03 03:58:24;;;;;;;5.65;0.90;;;26.00;56.80;;;;;;5041282;28;20052;-63
2022/08/03 04:00:52;;;;;;;1.23;1.00;;;26.10;56.90;;;;;;5042754;28;20053;-63
2022/08/03 04:03:20;;;;;;;2.60;1.10;;;26.00;56.90;;;;;;5042116;28;20059;-63
2022/08/03 04:11:39;;;;;;;1.75;1.20;;;26.10;56.90;;;;;;5042401;28;20451;-63
2022/08/03 04:14:15;;;;;;;2.88;1.52;;;26.10;56.90;;;;;;5040182;28;20841;-63
2022/08/03 04:16:47;;;;;;;1.40;1.30;;;26.10;56.80;;;;;;5039493;28;20069;-63
2022/08/03 04:19:23;;;;;;;1.00;0.90;;;26.10;56.70;;;;;;5041747;28;20048;-63
2022/08/03 04:21:54;;;;;;;1.73;1.08;;;26.10;56.70;;;;;;5041855;28;20513;-63
2022/08/03 04:24:40;;;;;;;1.15;1.10;;;26.20;56.80;;;;;;5036573;28;20671;-63
2022/08/03 04:27:10;;;;;;;1.05;0.95;;;26.20;56.70;;;;;;5034896;28;20732;-63
2022/08/03 04:29:42;;;;;;;3.95;0.90;;;26.20;56.70;;;;;;5041860;28;20045;-63
2022/08/03 04:32:15;;;;;;;2.92;1.00;;;26.20;56.60;;;;;;5042897;28;20044;-63
2022/08/03 04:34:43;;;;;;;1.73;1.15;;;26.20;56.50;;;;;;5045372;28;20051;-63
2022/08/03 04:37:17;;;;;;;2.97;1.88;;;26.30;56.50;;;;;;5046415;28;20122;-63
2022/08/03 04:39:48;;;;;;;1.70;0.68;;;26.30;56.40;;;;;;5045708;28;20098;-63
2022/08/03 04:42:17;;;;;;;0.95;0.95;;;26.30;56.30;;;;;;5046405;28;20094;-63
2022/08/03 04:44:46;;;;;;;0.95;0.95;;;26.30;56.20;;;;;;5045527;28;20057;-63
2022/08/03 04:47:14;;;;;;;0.88;0.88;;;26.30;56.20;;;;;;5041277;28;20049;-63
2022/08/03 04:49:42;;;;;;;1.15;1.00;;;26.30;56.10;;;;;;5046002;28;20057;-63
2022/08/03 04:52:10;;;;;;;1.00;0.90;;;26.40;56.10;;;;;;5045856;28;20241;-63
2022/08/03 04:54:44;;;;;;;1.10;0.98;;;26.40;56.00;;;;;;5045810;28;20048;-63
2022/08/03 04:57:17;;;;;;;2.63;1.20;;;26.40;56.00;;;;;;5045383;28;20164;-64
2022/08/03 04:59:53;;;;;;;0.88;0.88;;;26.40;55.80;;;;;;5045689;28;20059;-63
2022/08/03 05:02:30;;;;;;;1.07;0.70;;;26.50;55.80;;;;;;5029421;28;20053;-63
2022/08/03 05:04:57;;;;;;;3.53;1.00;;;26.50;55.70;;;;;;5028090;28;20139;-63
2022/08/03 05:07:24;;;;;;;3.22;1.45;;;26.50;55.60;;;;;;5044184;28;20783;-68
2022/08/03 05:10:03;;;;;;;1.42;1.33;;;26.50;55.40;;;;;;5044513;28;20061;-63
2022/08/03 05:12:41;;;;;;;1.07;0.90;;;26.50;55.40;;;;;;5044962;28;20140;-63
2022/08/03 05:15:08;;;;;;;1.20;0.98;;;26.40;55.40;;;;;;5044234;28;20049;-63
2022/08/03 05:17:36;;;;;;;1.67;1.17;;;26.20;55.50;;;;;;5040245;28;20049;-63
2022/08/03 05:20:04;;;;;;;2.78;1.08;;;26.00;55.50;;;;;;5038073;28;20099;-63
2022/08/03 05:22:32;;;;;;;1.33;1.20;;;25.80;54.90;;;;;;5057718;28;20080;-63
2022/08/03 05:25:00;;;;;;;1.30;1.20;;;25.60;54.20;;;;;;5035378;28;20044;-63
2022/08/03 05:27:27;;;;;;;3.63;1.40;;;25.30;53.60;;;;;;5040351;28;20049;-63
2022/08/03 05:29:55;;;;;;;2.05;1.67;;;25.00;53.20;;;;;;5032644;28;20060;-63
2022/08/03 05:32:42;;;;;;;5.07;1.10;;;24.60;52.70;;;;;;5036347;28;20068;-63
2022/08/03 05:35:09;;;;;;;1.50;1.40;;;24.30;52.70;;;;;;5032258;28;20485;-63
2022/08/03 05:37:56;;;;;;;3.70;1.33;;;23.90;52.20;;;;;;5037571;28;20049;-63
2022/08/03 05:40:24;;;;;;;1.40;1.27;;;23.50;52.30;;;;;;5032291;28;20107;-64
2022/08/03 05:42:52;;;;;;;1.40;1.30;;;23.30;52.60;;;;;;5032922;28;20065;-63
2022/08/03 05:45:20;;;;;;;1.33;1.23;;;22.90;52.40;;;;;;5030331;28;20065;-62
2022/08/03 05:47:53;;;;;;;1.58;1.48;;;22.70;52.40;;;;;;5034625;28;20052;-62
2022/08/03 05:50:20;;;;;;;1.50;1.40;;;22.40;52.60;;;;;;5023993;28;20052;-63
2022/08/03 05:52:48;;;;;;;2.25;1.38;;;22.20;53.00;;;;;;5034985;28;20048;-63
2022/08/03 05:55:15;;;;;;;1.50;1.45;;;22.00;53.10;;;;;;5033454;28;20071;-63
2022/08/03 05:57:46;;;;;;;1.20;1.20;;;21.80;53.70;;;;;;5039015;28;20045;-61
2022/08/03 06:00:16;;;;;;;2.38;1.70;;;21.60;54.50;;;;;;5039616;28;20460;-62
2022/08/03 06:02:44;;;;;;;2.17;1.57;;;21.40;54.90;;;;;;5041766;28;20462;-63
2022/08/03 06:05:12;;;;;;;1.85;1.75;;;21.30;55.40;;;;;;5036947;28;20308;-62
2022/08/03 06:07:39;;;;;;;2.78;2.00;;;21.20;55.70;;;;;;5037112;28;20122;-62
2022/08/03 06:10:07;;;;;;;3.88;2.17;;;21.10;55.70;;;;;;5035394;28;20053;-62
2022/08/03 06:12:55;;;;;;;2.70;2.40;;;21.00;56.00;;;;;;5036600;28;20055;-62
2022/08/03 06:15:22;;;;;;;3.00;2.75;;;20.90;56.90;;;;;;5035271;28;20053;-61
2022/08/03 06:17:51;;;;;;;2.05;1.95;;;20.80;56.90;;;;;;5039886;28;20103;-62
2022/08/03 06:20:19;;;;;;;2.08;1.95;;;20.80;56.80;;;;;;5039221;28;20056;-62
2022/08/03 06:22:48;;;;;;;1.90;1.80;;;20.80;57.10;;;;;;5032801;28;20076;-62
2022/08/03 06:25:26;;;;;;;2.50;2.30;;;20.70;57.10;;;;;;5033794;28;20049;-62
2022/08/03 06:27:53;;;;;;;2.67;2.42;;;20.70;57.10;;;;;;5043640;28;20088;-63
2022/08/03 06:30:20;;;;;;;2.70;2.38;;;20.60;57.00;;;;;;5036410;28;20107;-64
2022/08/03 06:32:48;;;;;;;3.83;2.13;;;20.60;57.20;;;;;;5037974;28;20448;-63
2022/08/03 06:35:18;;;;;;;4.05;2.00;;;20.50;57.10;;;;;;5036697;28;20049;-62
2022/08/03 06:37:50;;;;;;;4.35;2.20;;;20.50;57.30;;;;;;5041866;28;20451;-62
2022/08/03 06:40:19;;;;;;;2.30;2.10;;;20.50;57.30;;;;;;5040051;28;20094;-62
2022/08/03 06:42:50;;;;;;;2.20;2.10;;;20.40;58.00;;;;;;5038682;28;20055;-62
2022/08/03 06:45:17;;;;;;;2.65;2.40;;;20.40;57.50;;;;;;5041281;28;20053;-62
2022/08/03 06:47:45;;;;;;;2.03;1.92;;;20.40;58.10;;;;;;5037196;28;20107;-63
2022/08/03 06:50:12;;;;;;;2.35;2.17;;;20.40;58.30;;;;;;5040065;28;20140;-62
2022/08/03 06:52:44;;;;;;;2.33;2.22;;;20.30;58.40;;;;;;5037790;28;20054;-62
2022/08/03 06:55:11;;;;;;;2.15;1.73;;;20.30;59.00;;;;;;5049357;28;20052;-62
2022/08/03 06:57:39;;;;;;;1.90;1.80;;;20.40;58.80;;;;;;5038275;28;20049;-62
2022/08/03 07:00:08;;;;;;;3.60;2.05;;;20.30;58.50;;;;;;5041968;28;20052;-61
2022/08/03 07:02:39;;;;;;;1.92;1.83;;;20.40;58.40;;;;;;5037477;28;20505;-63
2022/08/03 07:05:08;;;;;;;2.00;1.90;;;20.30;58.40;;;;;;5041661;28;20049;-62
2022/08/03 07:07:37;;;;;;;2.93;2.17;;;20.40;58.20;;;;;;5039619;28;20053;-61
2022/08/03 07:10:05;;;;;;;2.30;2.10;;;20.30;58.10;;;;;;5041098;28;20157;-62
2022/08/03 07:12:34;;;;;;;2.83;2.25;;;20.30;58.40;;;;;;5039764;28;20052;-61
2022/08/03 07:15:03;;;;;;;2.10;2.00;;;20.30;58.40;;;;;;5034164;28;20053;-61
2022/08/03 07:17:33;;;;;;;2.22;2.03;;;20.30;58.60;;;;;;5039048;28;20045;-61
2022/08/03 07:20:02;;;;;;;2.05;1.95;;;20.20;58.20;;;;;;5034803;28;20080;-62
2022/08/03 07:22:30;;;;;;;1.92;1.83;;;20.20;58.70;;;;;;5037583;28;20049;-62
2022/08/03 07:24:58;;;;;;;4.30;2.45;;;20.20;58.80;;;;;;5033191;28;20362;-61
2022/08/03 07:27:27;;;;;;;2.40;2.13;;;20.20;58.90;;;;;;5043552;28;20045;-62
2022/08/03 07:29:55;;;;;;;2.50;2.30;;;20.20;59.00;;;;;;5044244;28;20041;-61
2022/08/03 07:32:23;;;;;;;2.80;2.60;;;20.30;59.00;;;;;;5038331;28;20531;-60
2022/08/03 07:34:51;;;;;;;3.13;2.45;;;20.30;59.30;;;;;;5039961;28;20159;-61
2022/08/03 07:37:25;;;;;;;2.63;1.83;;;20.30;59.50;;;;;;5045311;28;20222;-60
2022/08/03 07:39:53;;;;;;;2.30;2.10;;;20.30;59.30;;;;;;5039301;28;20044;-61
2022/08/03 07:42:22;;;;;;;4.53;2.60;;;20.30;59.40;;;;;;5033910;28;20551;-62
2022/08/03 07:44:51;;;;;;;;;;;20.40;59.70;;;;;;5040228;28;20053;-59
2022/08/03 07:47:22;;;;;;;2.90;2.70;;;20.40;60.00;;;;;;5034241;28;19924;-60
2022/08/03 07:49:50;;;;;;;2.25;2.15;;;20.40;60.10;;;;;;5039051;28;20049;-60
2022/08/03 07:55:06;;;;;;;3.45;2.50;;;20.50;60.60;;;;;;5040252;28;20130;-62
2022/08/03 07:57:34;;;;;;;2.90;2.45;;;20.50;60.50;;;;;;5034408;28;20481;-60
2022/08/03 08:00:04;;;;;;;3.33;2.70;;;20.50;60.50;;;;;;5040065;28;20052;-61
2022/08/03 08:02:31;;;;;;;2.72;2.53;;;20.50;60.60;;;;;;5034561;28;20107;-60
2022/08/03 08:04:58;;;;;;;2.78;2.58;;;20.60;60.50;;;;;;5033647;28;20053;-60
2022/08/03 08:07:31;;;;;;;2.60;2.40;;;20.60;60.80;;;;;;5033198;28;20069;-60
2022/08/03 08:09:58;;;;;;;2.40;2.25;;;20.70;60.90;;;;;;5036605;28;20102;-61
2022/08/03 08:12:26;;;;;;;2.70;2.50;;;20.70;60.70;;;;;;5037953;28;20705;-60
2022/08/03 08:14:53;;;;;;;3.47;2.40;;;20.70;60.90;;;;;;5040962;28;20485;-61
2022/08/03 08:17:20;;;;;;;2.38;2.28;;;20.80;61.40;;;;;;5034414;28;20456;-61
2022/08/03 08:19:48;;;;;;;2.28;2.17;;;20.80;60.80;;;;;;5033880;28;20077;-61
2022/08/03 08:22:18;;;;;;;2.33;2.13;;;20.90;60.80;;;;;;5035850;28;20083;-61
2022/08/03 08:24:56;;;;;;;3.30;2.28;;;21.00;60.40;;;;;;5034202;28;20050;-61
2022/08/03 08:27:23;;;;;;;2.67;2.50;;;21.00;60.20;;;;;;5037270;28;20057;-60
2022/08/03 08:29:51;;;;;;;2.63;2.35;;;21.00;60.20;;;;;;5029595;28;20072;-61
2022/08/03 08:32:22;;;;;;;3.22;2.75;;;21.10;60.40;;;;;;5045215;28;20140;-61
2022/08/03 08:34:49;;;;;;;3.00;2.78;;;21.10;60.10;;;;;;5039304;28;20088;-62
2022/08/03 08:37:16;;;;;;;2.40;2.30;;;21.10;60.10;;;;;;5042337;28;20056;-62
2022/08/03 08:39:44;;;;;;;4.47;2.78;;;21.20;60.00;;;;;;5039830;28;20056;-61
2022/08/03 08:42:11;;;;;;;3.28;2.47;;;21.20;60.10;;;;;;5042993;28;20049;-60
2022/08/03 08:44:38;;;;;;;2.90;2.70;;;21.20;59.90;;;;;;5034969;28;20059;-61
2022/08/03 08:47:08;;;;;;;2.42;2.22;;;21.20;59.60;;;;;;5042425;28;20797;-61
2022/08/03 08:49:36;;;;;;;2.20;2.10;;;21.20;59.60;;;;;;5032199;28;20049;-61
2022/08/03 08:52:06;;;;;;;4.93;2.70;;;21.30;59.20;;;;;;5034143;28;20073;-61
2022/08/03 08:54:59;;;;;;;2.05;1.95;;;21.30;59.30;;;;;;5035686;28;20041;-61
2022/08/03 08:57:37;;;;;;;2.30;2.20;;;21.20;59.30;;;;;;5037728;28;20134;-61
2022/08/03 09:00:13;;;;;;;2.65;2.10;;;21.20;59.10;;;;;;5025693;28;20406;-60
2022/08/03 09:02:42;;;;;;;2.60;2.20;;;21.20;58.90;;;;;;5041740;28;20733;-59
2022/08/03 09:05:14;;;;;;;2.20;2.10;;;21.20;59.00;;;;;;5040388;28;20049;-59
2022/08/03 09:07:43;;;;;;;2.28;2.08;;;21.20;59.10;;;;;;5037933;28;20053;-60
2022/08/03 09:10:12;;;;;;;2.30;2.20;;;21.20;58.90;;;;;;5035503;28;20064;-59
2022/08/03 09:12:45;;;;;;;2.33;2.22;;;21.20;58.80;;;;;;5038766;28;20110;-60
2022/08/03 09:15:31;;;;;;;2.40;2.20;;;21.20;58.70;;;;;;5044510;28;20055;-59
2022/08/03 09:18:00;;;;;;;2.40;2.30;;;21.20;58.70;;;;;;5029546;28;20057;-59
2022/08/03 09:20:31;;;;;;;2.28;1.98;;;21.20;58.70;;;;;;5042572;28;20057;-60
2022/08/03 09:23:07;;;;;;;2.45;2.20;;;21.20;58.70;;;;;;5044207;28;20045;-60
2022/08/03 09:25:58;;;;;;;2.67;1.83;;;21.20;58.70;;;;;;5038645;28;20726;-62
2022/08/03 09:28:34;;;;;;;2.10;1.90;;;21.10;58.70;;;;;;5062434;28;20040;-61
2022/08/03 09:31:35;;;;;;;2.75;2.53;;;21.10;58.70;;;;;;5039128;28;20048;-62
2022/08/03 09:34:06;;;;;;;2.33;2.22;;;21.20;58.60;;;;;;5038265;28;20092;-64
2022/08/03 09:36:45;;;;;;;2.58;2.38;;;21.20;58.80;;;;;;5040128;28;20049;-63
2022/08/03 09:39:16;;;;;;;2.67;2.47;;;21.20;58.80;;;;;;5041096;28;20052;-63
2022/08/03 09:41:44;;;;;;;;;;;21.20;58.60;;;;;;5042484;28;20294;-63
2022/08/03 09:44:13;;;;;;;2.50;2.30;;;21.30;58.30;;;;;;5039280;28;19921;-62
2022/08/03 09:46:54;;;;;;;2.55;2.30;;;21.30;58.10;;;;;;5036402;28;20060;-62
2022/08/03 09:49:22;;;;;;;1.95;1.85;;;21.40;57.80;;;;;;5045745;28;20076;-62
2022/08/03 09:51:49;;;;;;;2.17;2.08;;;21.50;57.50;;;;;;5039735;28;20457;-62
2022/08/03 09:54:38;;;;;;;3.70;2.10;;;21.50;57.40;;;;;;5037916;28;20140;-63
2022/08/03 09:57:05;;;;;;;2.40;2.30;;;21.50;57.10;;;;;;5042270;28;20464;-62
2022/08/03 09:59:33;;;;;;;2.67;2.10;;;21.50;57.20;;;;;;5041791;28;20428;-63
2022/08/03 10:02:00;;;;;;;3.05;1.80;;;21.50;57.20;;;;;;5037188;28;20049;-62
2022/08/03 10:04:28;;;;;;;2.28;2.08;;;21.50;57.20;;;;;;5029645;28;20429;-62
2022/08/03 10:07:08;;;;;;;3.03;2.42;;;21.50;57.00;;;;;;5045249;28;20397;-62
2022/08/03 10:09:36;;;;;;;1.95;1.85;;;21.50;57.00;;;;;;5032723;28;20581;-62
2022/08/03 10:12:11;;;;;;;2.00;1.90;;;21.50;57.40;;;;;;5045383;28;20053;-62
2022/08/03 10:14:41;;;;;;;1.80;1.70;;;21.50;57.00;;;;;;5043068;28;20139;-63
2022/08/03 10:17:09;;;;;;;2.38;2.17;;;21.50;56.70;;;;;;5032340;28;20114;-63
2022/08/03 10:19:36;;;;;;;2.00;1.90;;;21.40;56.40;;;;;;5044730;28;20041;-62
2022/08/03 10:22:11;;;;;;;2.05;1.95;;;21.50;56.20;;;;;;5041875;28;20523;-62
2022/08/03 10:24:50;;;;;;;2.25;2.15;;;21.40;56.40;;;;;;5037882;28;20053;-62
2022/08/03 10:27:19;;;;;;;2.22;1.70;;;21.40;56.30;;;;;;5041964;28;20481;-62
2022/08/03 10:29:52;;;;;;;2.42;2.22;;;21.40;56.30;;;;;;5028275;28;20131;-61
2022/08/03 10:32:39;;;;;;;1.83;1.73;;;21.30;56.20;;;;;;5035531;28;20126;-62
2022/08/03 10:35:15;;;;;;;1.90;1.80;;;21.30;56.10;;;;;;5039016;28;20069;-62
2022/08/03 10:38:00;;;;;;;3.28;2.00;;;21.30;55.90;;;;;;5037833;28;20051;-62
2022/08/03 10:40:31;;;;;;;2.10;2.00;;;21.30;55.60;;;;;;5039069;28;20481;-62
2022/08/03 10:43:21;;;;;;;1.80;1.70;;;21.30;55.70;;;;;;5041825;28;20092;-62
2022/08/03 10:45:49;;;;;;;2.00;1.90;;;21.20;55.40;;;;;;5025903;28;20152;-61
2022/08/03 10:48:18;;;;;;;1.88;1.77;;;21.20;55.50;;;;;;5034749;28;20045;-61
2022/08/03 10:50:47;;;;;;;2.25;2.15;;;21.20;55.60;;;;;;5039575;28;20076;-61
2022/08/03 10:53:14;;;;;;;2.50;2.30;;;21.10;55.50;;;;;;5036518;28;20052;-61
2022/08/03 10:58:50;;;;;;;1.60;1.50;;;21.10;55.60;;;;;;5043830;28;20547;-61
2022/08/03 11:01:51;;;;;;;2.10;2.00;;;21.00;55.40;;;;;;5045628;28;20053;-64
2022/08/03 11:04:28;;;;;;;3.60;1.90;;;21.00;55.50;;;;;;5034626;28;20607;-61
2022/08/03 11:07:22;;;;;;;2.00;1.90;;;21.00;55.80;;;;;;5036680;28;20045;-63
2022/08/03 11:09:55;;;;;;;1.95;1.85;;;21.10;56.00;;;;;;5031068;28;20053;-64
2022/08/03 11:12:28;;;;;;;2.22;1.73;;;21.10;56.10;;;;;;5036546;28;20052;-62
2022/08/03 11:15:00;;;;;;;2.00;1.80;;;21.10;56.20;;;;;;5042385;28;20052;-63
2022/08/03 11:17:27;;;;;;;;;;;21.20;56.50;;;;;;5037895;28;20049;-62
2022/08/03 11:19:55;;;;;;;2.72;2.55;;;21.10;56.20;;;;;;5033538;28;20411;-63
2022/08/03 11:22:27;;;;;;;2.20;2.10;;;21.10;56.30;;;;;;5044181;28;20047;-62
2022/08/03 11:24:56;;;;;;;1.63;1.52;;;21.20;56.40;;;;;;5041347;28;20052;-65
2022/08/03 11:27:32;;;;;;;2.00;1.90;;;21.20;56.30;;;;;;5039350;28;20087;-64
2022/08/03 11:30:25;;;;;;;1.60;1.50;;;21.30;56.20;;;;;;5036153;28;20100;-61
2022/08/03 11:32:57;;;;;;;3.17;1.55;;;21.30;55.90;;;;;;5035176;28;20063;-61
2022/08/03 11:35:31;;;;;;;2.00;1.90;;;21.30;55.70;;;;;;5039569;28;20082;-62
2022/08/03 11:38:04;;;;;;;1.77;1.67;;;21.30;55.40;;;;;;5040620;28;20060;-61
2022/08/03 11:40:38;;;;;;;1.80;1.70;;;21.30;55.10;;;;;;5035483;28;20063;-62
2022/08/03 11:43:09;;;;;;;1.83;1.73;;;21.30;55.00;;;;;;5035943;28;20110;-62
2022/08/03 11:45:37;;;;;;;1.83;1.73;;;21.20;55.10;;;;;;5023492;28;20099;-62
2022/08/03 11:48:15;;;;;;;1.70;1.60;;;21.20;55.00;;;;;;5037559;28;20056;-62
2022/08/03 11:50:44;;;;;;;3.70;1.67;;;21.20;54.80;;;;;;5049058;28;20127;-61
2022/08/03 11:53:16;;;;;;;2.42;2.28;;;21.20;55.00;;;;;;5032655;28;20077;-61
2022/08/03 11:55:47;;;;;;;2.22;1.90;;;21.10;55.00;;;;;;5033608;28;20041;-61
2022/08/03 11:58:16;;;;;;;1.88;1.77;;;21.10;55.30;;;;;;5032731;28;20056;-61
2022/08/03 12:01:11;;;;;;;1.83;1.73;;;21.10;55.20;;;;;;5034205;28;20793;-61
2022/08/03 12:03:39;;;;;;;2.20;2.10;;;21.10;55.20;;;;;;5034070;28;20049;-61
2022/08/03 12:06:12;;;;;;;1.88;1.77;;;21.00;55.20;;;;;;5035791;28;20053;-60
2022/08/03 12:08:41;;;;;;;2.13;2.03;;;21.00;55.50;;;;;;5029979;28;20774;-62
2022/08/03 12:11:11;;;;;;;2.13;1.92;;;21.00;55.60;;;;;;5042833;28;20053;-63
2022/08/03 12:13:45;;;;;;;1.70;1.60;;;21.00;55.70;;;;;;5026769;28;20441;-62
2022/08/03 12:16:33;;;;;;;1.75;1.65;;;21.00;55.90;;;;;;5039497;28;20074;-61
2022/08/03 12:19:03;;;;;;;1.80;1.70;;;21.10;55.90;;;;;;5043825;28;20105;-61
2022/08/03 12:21:31;;;;;;;1.85;1.70;;;21.10;55.90;;;;;;5050080;28;20045;-61
2022/08/03 12:24:01;;;;;;;2.35;1.98;;;21.10;55.90;;;;;;5025945;28;20045;-61
2022/08/03 12:26:30;;;;;;;1.65;1.55;;;21.10;56.00;;;;;;5039583;28;20522;-62
2022/08/03 12:28:57;;;;;;;2.65;1.70;;;21.20;56.00;;;;;;5032531;28;20057;-61
2022/08/03 12:31:24;;;;;;;1.80;1.70;;;21.20;56.00;;;;;;5031861;28;20987;-61
2022/08/03 12:34:01;;;;;;;1.70;1.60;;;21.20;56.00;;;;;;5036290;28;20037;-61
2022/08/03 12:36:33;;;;;;;1.77;1.58;;;21.20;56.00;;;;;;5036200;28;20051;-61
2022/08/03 12:39:03;;;;;;;1.83;1.73;;;21.20;56.00;;;;;;5037099;28;20049;-61
2022/08/03 12:41:35;;;;;;;1.80;1.70;;;21.30;56.00;;;;;;5031272;28;20053;-61
2022/08/03 12:44:07;;;;;;;1.80;1.70;;;21.30;56.00;;;;;;5026475;28;20065;-61
2022/08/03 12:46:37;;;;;;;1.75;1.65;;;21.30;56.10;;;;;;5039857;28;20306;-61
2022/08/03 12:49:14;;;;;;;1.95;1.63;;;21.30;55.80;;;;;;5037525;28;20053;-61
2022/08/03 12:52:01;;;;;;;1.92;1.83;;;21.30;55.90;;;;;;5037154;28;20049;-62
2022/08/03 12:54:34;;;;;;;1.60;1.50;;;21.40;55.90;;;;;;5038874;28;20040;-62
2022/08/03 12:57:05;;;;;;;1.65;1.55;;;21.40;55.80;;;;;;5042542;28;20063;-62
2022/08/03 12:59:35;;;;;;;2.00;1.90;;;21.40;55.90;;;;;;5037939;28;20453;-62
2022/08/03 13:02:18;;;;;;;2.08;1.98;;;21.40;55.90;;;;;;5046923;28;20052;-62
2022/08/03 13:04:51;;;;;;;2.10;1.90;;;21.50;55.90;;;;;;5046520;28;20381;-62
2022/08/03 13:07:19;;;;;;;1.60;1.50;;;21.50;55.90;;;;;;5043457;28;20106;-62
2022/08/03 13:09:52;;;;;;;1.77;1.67;;;21.50;55.90;;;;;;5051088;28;20406;-62
2022/08/03 13:12:28;;;;;;;2.55;1.73;;;21.50;55.70;;;;;;5054441;28;20448;-62
2022/08/03 13:14:58;;;;;;;1.73;1.60;;;21.60;55.50;;;;;;5049672;28;20044;-62
2022/08/03 13:17:27;;;;;;;2.05;1.92;;;21.60;55.50;;;;;;5039606;28;20053;-62
2022/08/03 13:19:54;;;;;;;1.70;1.60;;;21.60;55.60;;;;;;5044163;28;20399;-62
2022/08/03 13:22:23;;;;;;;1.77;1.67;;;21.60;55.60;;;;;;5039922;28;20172;-61
2022/08/03 13:24:56;;;;;;;1.42;1.42;;;21.60;55.50;;;;;;5041063;28;20103;-62
2022/08/03 13:27:24;;;;;;;1.80;1.70;;;21.60;55.50;;;;;;5042557;28;20041;-61